createdAt,value
2019-03-01T00:01:02.580Z,100.47
2019-03-01T00:03:32.054Z,103.70
2019-03-01T00:06:20.389Z,87.43
2019-03-01T00:09:38.682Z,94.73
2019-03-01T00:13:03.493Z,78.83
2019-03-01T00:16:31.599Z,86.53
2019-03-01T00:19:21.009Z,89.53
2019-03-01T00:22:40.950Z,108.03
2019-03-01T00:25:37.453Z,105.10
2019-03-01T00:28:54.398Z,98.47
2019-03-01T00:31:49.132Z,90.83
2019-03-01T00:35:05.446Z,81.90
2019-03-01T00:38:05.891Z,98.13
2019-03-01T00:41:08.631Z,101.33
2019-03-01T00:44:37.531Z,102.83
2019-03-01T00:47:04.997Z,97.43
2019-03-01T00:49:32.634Z,83.60
2019-03-01T00:52:00.187Z,97.60
2019-03-01T00:54:27.627Z,90.57
2019-03-01T00:56:55.127Z,88.90
2019-03-01T00:59:23.183Z,100.97
2019-03-01T01:01:50.795Z,92.03
2019-03-01T01:04:18.198Z,85.57
2019-03-01T01:06:46.107Z,91.50
2019-03-01T01:09:13.661Z,89.50
2019-03-01T01:11:41.190Z,93.27
2019-03-01T01:14:08.659Z,100.80
2019-03-01T01:16:36.256Z,99.30
2019-03-01T01:19:16.477Z,71.80
2019-03-01T01:21:44.656Z,91.73
2019-03-01T01:24:12.281Z,97.13
2019-03-01T01:26:39.823Z,88.85
2019-03-01T01:29:07.356Z,91.27
2019-03-01T01:31:34.921Z,85.45
2019-03-01T01:34:02.301Z,101.90
2019-03-01T01:36:29.743Z,94.53
2019-03-01T01:38:57.309Z,94.40
2019-03-01T01:41:24.877Z,83.07
2019-03-01T01:43:52.482Z,87.83
2019-03-01T01:46:19.986Z,92.07
2019-03-01T01:48:47.450Z,82.23
2019-03-01T01:51:14.873Z,77.30
2019-03-01T01:53:42.405Z,96.80
2019-03-01T01:56:09.881Z,81.03
2019-03-01T01:58:37.436Z,72.13
2019-03-01T02:01:04.838Z,90.67
2019-03-01T02:03:32.384Z,100.80
2019-03-01T02:05:59.928Z,103.90
2019-03-01T02:08:27.654Z,77.57
2019-03-01T02:10:55.131Z,93.90
2019-03-01T02:13:22.822Z,91.43
2019-03-01T02:15:50.206Z,82.63
2019-03-01T02:18:18.756Z,78.87
2019-03-01T02:20:46.216Z,78.47
2019-03-01T02:23:13.730Z,85.40
2019-03-01T02:25:41.271Z,94.20
2019-03-01T02:28:08.944Z,88.00
2019-03-01T02:30:36.503Z,93.10
2019-03-01T02:33:04.144Z,95.63
2019-03-01T02:35:31.869Z,95.40
2019-03-01T02:37:59.340Z,98.60
2019-03-01T02:40:27.812Z,95.87
2019-03-01T02:42:55.781Z,91.63
2019-03-01T02:45:23.414Z,87.30
2019-03-01T02:47:50.973Z,82.50
2019-03-01T02:50:18.878Z,87.57
2019-03-01T02:52:46.485Z,90.83
2019-03-01T02:55:15.583Z,81.07
2019-03-01T02:57:43.403Z,90.10
2019-03-01T03:00:14.231Z,94.97
2019-03-01T03:02:41.761Z,77.40
2019-03-01T03:05:09.260Z,83.43
2019-03-01T03:07:48.079Z,91.03
2019-03-01T03:10:16.741Z,71.33
2019-03-01T03:12:44.676Z,84.40
2019-03-01T03:15:12.877Z,78.23
2019-03-01T03:17:40.555Z,97.00
2019-03-01T03:20:08.518Z,98.37
2019-03-01T03:22:36.111Z,96.47
2019-03-01T03:25:04.744Z,106.87
2019-03-01T03:27:32.276Z,102.80
2019-03-01T03:30:00.048Z,98.20
2019-03-01T03:32:27.602Z,91.63
2019-03-01T03:34:55.193Z,94.43
2019-03-01T03:37:22.800Z,93.67
2019-03-01T03:40:03.016Z,93.83
2019-03-01T03:42:30.873Z,104.27
2019-03-01T03:44:58.420Z,103.13
2019-03-01T03:47:26.527Z,93.90
2019-03-01T03:49:54.032Z,90.37
2019-03-01T03:52:21.513Z,91.27
2019-03-01T03:54:49.081Z,68.40
2019-03-01T03:57:16.719Z,96.67
2019-03-01T03:59:45.153Z,100.87
2019-03-01T04:02:12.755Z,91.23
2019-03-01T04:04:40.318Z,102.10
2019-03-01T04:07:07.755Z,86.17
2019-03-01T04:09:35.444Z,78.23
2019-03-01T04:12:02.876Z,90.97
2019-03-01T04:14:30.638Z,102.23
2019-03-01T04:16:58.070Z,90.97
2019-03-01T04:19:25.910Z,93.37
2019-03-01T04:21:53.617Z,120.50
2019-03-01T04:24:21.195Z,107.37
2019-03-01T04:26:48.768Z,102.73
2019-03-01T04:29:17.401Z,106.30
2019-03-01T04:31:45.638Z,96.93
2019-03-01T04:34:13.366Z,84.83
2019-03-01T04:36:41.094Z,93.23
2019-03-01T04:39:08.617Z,109.10
2019-03-01T04:41:36.677Z,119.42
2019-03-01T04:44:04.276Z,111.93
2019-03-01T04:46:31.775Z,134.55
2019-03-01T04:48:59.262Z,123.90
2019-03-01T04:51:26.809Z,114.60
2019-03-01T04:53:54.327Z,127.70
2019-03-01T04:56:21.940Z,123.77
2019-03-01T04:58:50.025Z,128.03
2019-03-01T05:01:20.220Z,108.30
2019-03-01T05:03:47.804Z,107.17
2019-03-01T05:06:15.411Z,108.37
2019-03-01T05:08:42.863Z,122.00
2019-03-01T05:11:10.709Z,114.53
2019-03-01T05:13:38.250Z,111.37
2019-03-01T05:16:08.806Z,119.63
2019-03-01T05:18:36.459Z,126.00
2019-03-01T05:21:04.010Z,109.60
2019-03-01T05:23:31.316Z,139.13
2019-03-01T05:25:59.017Z,125.77
2019-03-01T05:28:26.568Z,162.63
2019-03-01T05:30:54.242Z,169.37
2019-03-01T05:33:21.744Z,160.57
2019-03-01T05:35:49.310Z,150.93
2019-03-01T05:38:21.742Z,159.50
2019-03-01T05:40:46.383Z,177.47
2019-03-01T05:43:13.797Z,171.40
2019-03-01T05:45:41.252Z,166.53
2019-03-01T05:48:08.964Z,198.28
2019-03-01T05:50:36.900Z,182.27
2019-03-01T05:53:04.993Z,154.40
2019-03-01T05:55:32.600Z,150.00
2019-03-01T05:58:36.875Z,154.10
2019-03-01T06:01:31.733Z,149.70
2019-03-01T06:04:35.961Z,154.10
2019-03-01T06:07:28.560Z,131.93
2019-03-01T06:10:03.973Z,121.30
2019-03-01T06:13:22.432Z,117.90
2019-03-01T06:16:06.978Z,108.50
2019-03-01T06:18:58.868Z,91.60
2019-03-01T06:22:17.842Z,81.00
2019-03-01T06:25:10.358Z,83.37
2019-03-01T06:28:18.882Z,86.53
2019-03-01T06:31:41.003Z,70.80
2019-03-01T06:34:38.668Z,72.33
2019-03-01T06:37:39.656Z,62.10
2019-03-01T06:41:17.978Z,64.20
2019-03-01T06:44:42.729Z,51.67
2019-03-01T06:47:40.916Z,48.60
2019-03-01T06:50:19.297Z,39.30
2019-03-01T06:52:47.031Z,39.47
2019-03-01T06:55:35.358Z,50.70
2019-03-01T06:58:03.066Z,39.08
2019-03-01T07:00:33.933Z,41.40
2019-03-01T07:03:01.461Z,37.00
2019-03-01T07:05:30.296Z,34.87
2019-03-01T07:07:57.914Z,31.60
2019-03-01T07:10:28.357Z,30.40
2019-03-01T07:12:56.041Z,37.03
2019-03-01T07:15:23.647Z,29.80
2019-03-01T07:17:51.179Z,33.43
2019-03-01T07:20:18.896Z,43.80
2019-03-01T07:22:46.401Z,38.83
2019-03-01T07:25:14.018Z,37.23
2019-03-01T07:27:41.742Z,41.80
2019-03-01T07:30:09.593Z,36.57
2019-03-01T07:32:37.265Z,28.87
2019-03-01T07:35:04.879Z,31.47
2019-03-01T07:37:32.553Z,32.77
2019-03-01T07:40:00.284Z,33.43
2019-03-01T07:42:27.821Z,31.03
2019-03-01T07:44:55.378Z,27.73
2019-03-01T07:47:22.890Z,28.80
2019-03-01T07:49:50.475Z,27.47
2019-03-01T07:52:17.949Z,29.53
2019-03-01T07:54:45.444Z,23.33
2019-03-01T07:57:14.741Z,23.57
2019-03-01T07:59:43.740Z,16.87
2019-03-01T08:02:11.341Z,18.27
2019-03-01T08:04:39.655Z,16.35
2019-03-01T08:07:07.247Z,13.73
2019-03-01T08:09:36.254Z,16.37
2019-03-01T08:12:07.274Z,20.43
2019-03-01T08:14:33.581Z,15.80
2019-03-01T08:17:01.188Z,16.37
2019-03-01T08:19:29.012Z,13.50
2019-03-01T08:21:56.531Z,19.00
2019-03-01T08:24:26.686Z,13.00
2019-03-01T08:26:54.201Z,11.83
2019-03-01T08:29:22.938Z,15.50
2019-03-01T08:31:52.812Z,16.27
2019-03-01T08:34:19.842Z,21.10
2019-03-01T08:36:47.355Z,21.33
2019-03-01T08:39:14.966Z,26.07
2019-03-01T08:41:42.490Z,15.00
2019-03-01T08:44:09.940Z,15.37
2019-03-01T08:46:37.594Z,15.60
2019-03-01T08:49:06.679Z,15.83
2019-03-01T08:51:34.649Z,26.37
2019-03-01T08:54:02.339Z,21.77
2019-03-01T08:56:30.446Z,23.20
2019-03-01T08:58:58.044Z,21.50
2019-03-01T09:01:26.624Z,14.53
2019-03-01T09:04:03.420Z,17.47
2019-03-01T09:06:36.609Z,18.13
2019-03-01T09:09:08.432Z,18.13
2019-03-01T09:11:36.158Z,16.97
2019-03-01T09:14:04.743Z,20.00
2019-03-01T09:16:32.275Z,20.80
2019-03-01T09:18:59.713Z,19.47
2019-03-01T09:21:27.240Z,23.50
2019-03-01T09:23:55.145Z,19.03
2019-03-01T09:26:22.699Z,19.40
2019-03-01T09:28:50.275Z,21.47
2019-03-01T09:31:17.846Z,21.03
2019-03-01T09:33:47.679Z,21.03
2019-03-01T09:36:25.444Z,23.87
2019-03-01T09:38:53.266Z,26.80
2019-03-01T09:41:20.712Z,23.40
2019-03-01T09:43:49.530Z,22.90
2019-03-01T09:46:17.034Z,20.20
2019-03-01T09:48:45.522Z,21.73
2019-03-01T09:51:15.788Z,18.53
2019-03-01T09:53:43.345Z,16.60
2019-03-01T09:56:12.945Z,20.13
2019-03-01T09:58:40.179Z,17.07
2019-03-01T10:01:11.025Z,11.90
2019-03-01T10:03:38.613Z,12.13
2019-03-01T10:06:06.274Z,14.50
2019-03-01T10:08:33.890Z,13.83
2019-03-01T10:11:01.375Z,12.33
2019-03-01T10:16:00.649Z,13.50
2019-03-01T10:18:29.390Z,14.83
2019-03-01T10:20:56.955Z,14.40
2019-03-01T10:23:25.041Z,11.20
2019-03-01T10:25:52.579Z,14.53
2019-03-01T10:28:20.354Z,11.53
2019-03-01T10:30:48.545Z,11.88
2019-03-01T10:33:17.148Z,7.00
2019-03-01T10:35:44.764Z,8.38
2019-03-01T10:38:12.268Z,8.80
2019-03-01T10:40:39.736Z,10.77
2019-03-01T10:43:07.229Z,10.30
2019-03-01T10:45:34.982Z,4.53
2019-03-01T10:48:02.495Z,7.43
2019-03-01T10:50:30.595Z,4.83
2019-03-01T10:52:58.123Z,8.53
2019-03-01T10:55:26.198Z,8.67
2019-03-01T10:57:54.136Z,5.73
2019-03-01T11:00:23.075Z,10.60
2019-03-01T11:02:50.827Z,8.50
2019-03-01T11:05:18.499Z,4.73
2019-03-01T11:07:48.049Z,8.07
2019-03-01T11:10:17.991Z,6.13
2019-03-01T11:12:45.533Z,6.93
2019-03-01T11:15:14.781Z,7.13
2019-03-01T11:17:42.737Z,8.03
2019-03-01T11:20:10.808Z,6.30
2019-03-01T11:22:38.208Z,5.23
2019-03-01T11:25:06.981Z,5.60
2019-03-01T11:27:34.410Z,6.43
2019-03-01T11:30:02.180Z,5.77
2019-03-01T11:32:32.188Z,7.83
2019-03-01T11:34:59.887Z,6.23
2019-03-01T11:37:27.490Z,6.00
2019-03-01T11:39:54.965Z,4.37
2019-03-01T11:42:22.507Z,5.67
2019-03-01T11:44:49.946Z,6.78
2019-03-01T11:47:17.439Z,8.10
2019-03-01T11:49:45.078Z,6.40
2019-03-01T11:52:12.643Z,3.43
2019-03-01T11:54:39.999Z,5.10
2019-03-01T11:57:07.529Z,4.87
2019-03-01T11:59:35.020Z,3.93
2019-03-01T12:02:02.667Z,14.13
2019-03-01T12:04:31.187Z,6.43
2019-03-01T12:06:58.764Z,6.63
2019-03-01T12:09:39.082Z,5.53
2019-03-01T12:12:06.578Z,7.80
2019-03-01T12:14:34.181Z,7.23
2019-03-01T12:17:01.884Z,5.00
2019-03-01T12:19:32.698Z,5.73
2019-03-01T12:22:00.206Z,5.00
2019-03-01T12:24:27.681Z,10.00
2019-03-01T12:26:57.268Z,6.23
2019-03-01T12:29:25.727Z,11.07
2019-03-01T12:31:53.292Z,6.77
2019-03-01T12:34:20.755Z,9.40
2019-03-01T12:36:48.708Z,8.37
2019-03-01T12:39:16.234Z,5.70
2019-03-01T12:41:44.667Z,6.50
2019-03-01T12:44:12.240Z,14.00
2019-03-01T12:46:40.000Z,6.87
2019-03-01T12:49:07.897Z,6.63
2019-03-01T12:51:35.459Z,3.00
2019-03-01T12:54:03.045Z,6.37
2019-03-01T12:56:30.450Z,5.72
2019-03-01T12:58:57.869Z,5.83
2019-03-01T13:01:26.010Z,7.43
2019-03-01T13:03:53.523Z,4.83
2019-03-01T13:06:21.022Z,9.73
2019-03-01T13:08:51.536Z,8.47
2019-03-01T13:11:17.951Z,6.80
2019-03-01T13:13:45.408Z,6.70
2019-03-01T13:16:13.002Z,7.37
2019-03-01T13:18:40.539Z,12.03
2019-03-01T13:21:09.637Z,6.80
2019-03-01T13:23:37.605Z,6.83
2019-03-01T13:26:07.026Z,10.13
2019-03-01T13:28:34.749Z,7.83
2019-03-01T13:31:02.284Z,11.87
2019-03-01T13:33:34.702Z,8.60
2019-03-01T13:36:03.550Z,7.63
2019-03-01T13:38:34.060Z,4.13
2019-03-01T13:41:02.244Z,11.33
2019-03-01T13:43:33.329Z,6.17
2019-03-01T13:46:01.039Z,10.07
2019-03-01T13:48:30.166Z,6.60
2019-03-01T13:50:57.661Z,6.33
2019-03-01T13:53:25.703Z,6.67
2019-03-01T13:55:56.333Z,9.33
2019-03-01T13:58:26.793Z,8.65
2019-03-01T14:00:52.180Z,11.70
2019-03-01T14:03:20.720Z,6.67
2019-03-01T14:05:54.724Z,6.73
2019-03-01T14:08:21.275Z,6.20
2019-03-01T14:11:08.438Z,4.27
2019-03-01T14:13:35.914Z,8.10
2019-03-01T14:16:03.302Z,9.70
2019-03-01T14:18:33.349Z,11.13
2019-03-01T14:21:00.147Z,3.10
2019-03-01T14:23:27.810Z,9.30
2019-03-01T14:25:55.730Z,12.80
2019-03-01T14:28:23.188Z,7.30
2019-03-01T14:30:51.098Z,8.30
2019-03-01T14:33:18.721Z,7.23
2019-03-01T14:35:46.135Z,8.63
2019-03-01T14:38:13.583Z,7.20
2019-03-01T14:40:41.093Z,9.70
2019-03-01T14:43:08.649Z,6.87
2019-03-01T14:45:36.073Z,6.03
2019-03-01T14:48:05.076Z,9.17
2019-03-01T14:50:33.623Z,7.60
2019-03-01T14:53:03.321Z,5.63
2019-03-01T14:55:34.966Z,8.90
2019-03-01T14:58:11.878Z,8.67
2019-03-01T15:00:50.803Z,14.67
2019-03-01T15:03:33.238Z,12.10
2019-03-01T15:06:00.829Z,6.67
2019-03-01T15:08:29.339Z,12.03
2019-03-01T15:10:58.632Z,7.23
2019-03-01T15:13:27.778Z,8.20
2019-03-01T15:15:55.719Z,14.10
2019-03-01T15:18:25.022Z,5.60
2019-03-01T15:20:56.240Z,11.33
2019-03-01T15:23:24.033Z,8.80
2019-03-01T15:25:54.486Z,6.47
2019-03-01T15:28:23.742Z,7.37
2019-03-01T15:30:51.269Z,11.77
2019-03-01T15:33:18.846Z,9.93
2019-03-01T15:35:46.328Z,4.80
2019-03-01T15:38:13.846Z,12.23
2019-03-01T15:40:41.434Z,8.00
2019-03-01T15:43:09.213Z,10.37
2019-03-01T15:45:39.812Z,9.13
2019-03-01T15:48:06.043Z,10.78
2019-03-01T15:50:33.540Z,10.88
2019-03-01T15:53:01.009Z,6.63
2019-03-01T15:55:29.717Z,5.87
2019-03-01T15:57:57.437Z,6.93
2019-03-01T16:00:25.602Z,16.03
2019-03-01T16:02:54.667Z,7.93
2019-03-01T16:05:23.211Z,7.90
2019-03-01T16:07:51.190Z,12.60
2019-03-01T16:10:18.671Z,11.43
2019-03-01T16:12:46.271Z,11.77
2019-03-01T16:15:13.766Z,14.40
2019-03-01T16:17:41.510Z,10.50
2019-03-01T16:20:11.099Z,9.20
2019-03-01T16:22:38.824Z,8.10
2019-03-01T16:25:08.509Z,11.73
2019-03-01T16:27:36.096Z,7.83
2019-03-01T16:30:04.226Z,9.40
2019-03-01T16:32:32.083Z,10.90
2019-03-01T16:35:00.576Z,13.30
2019-03-01T16:37:29.479Z,10.73
2019-03-01T16:40:00.243Z,14.17
2019-03-01T16:42:26.255Z,11.83
2019-03-01T16:44:53.741Z,14.43
2019-03-01T16:47:23.265Z,12.98
2019-03-01T16:49:51.363Z,8.13
2019-03-01T16:52:18.907Z,13.07
2019-03-01T16:54:47.557Z,11.97
2019-03-01T16:57:15.716Z,14.73
2019-03-01T16:59:43.736Z,11.23
2019-03-01T17:02:11.326Z,12.13
2019-03-01T17:04:38.639Z,13.83
2019-03-01T17:07:06.032Z,9.40
2019-03-01T17:09:33.575Z,12.17
2019-03-01T17:12:02.235Z,18.90
2019-03-01T17:14:29.741Z,18.43
2019-03-01T17:16:59.695Z,12.83
2019-03-01T17:19:27.671Z,12.60
2019-03-01T17:21:55.431Z,16.93
2019-03-01T17:24:23.226Z,10.55
2019-03-01T17:26:50.818Z,10.53
2019-03-01T17:29:18.339Z,9.60
2019-03-01T17:31:45.804Z,12.17
2019-03-01T17:34:13.363Z,14.57
2019-03-01T17:36:40.895Z,14.20
2019-03-01T17:39:08.447Z,13.93
2019-03-01T17:41:37.869Z,10.63
2019-03-01T17:44:08.530Z,14.23
2019-03-01T17:46:34.788Z,10.43
2019-03-01T17:49:02.427Z,13.53
2019-03-01T17:51:30.214Z,9.47
2019-03-01T17:53:57.811Z,10.57
2019-03-01T17:56:25.762Z,13.13
2019-03-01T17:58:53.187Z,12.97
2019-03-01T18:01:20.756Z,11.70
2019-03-01T18:03:48.483Z,9.43
2019-03-01T18:06:16.874Z,9.67
2019-03-01T18:08:45.323Z,16.13
2019-03-01T18:11:12.895Z,9.87
2019-03-01T18:13:40.439Z,10.00
2019-03-01T18:16:07.947Z,8.80
2019-03-01T18:18:35.368Z,13.77
2019-03-01T18:21:03.936Z,16.33
2019-03-01T18:23:34.174Z,12.80
2019-03-01T18:26:03.335Z,11.27
2019-03-01T18:28:33.059Z,7.60
2019-03-01T18:31:00.742Z,8.53
2019-03-01T18:33:30.752Z,16.50
2019-03-01T18:35:58.182Z,13.40
2019-03-01T18:38:27.645Z,11.40
2019-03-01T18:40:55.520Z,13.63
2019-03-01T18:43:24.603Z,15.03
2019-03-01T18:45:52.574Z,9.97
2019-03-01T18:48:20.233Z,15.68
2019-03-01T18:50:47.783Z,8.20
2019-03-01T18:53:15.907Z,8.87
2019-03-01T18:55:44.055Z,8.57
2019-03-01T18:58:13.964Z,13.63
2019-03-01T19:00:42.653Z,9.30
2019-03-01T19:03:10.152Z,11.33
2019-03-01T19:05:40.043Z,12.83
2019-03-01T19:08:07.342Z,12.00
2019-03-01T19:10:35.096Z,12.73
2019-03-01T19:13:02.677Z,12.90
2019-03-01T19:15:30.462Z,11.90
2019-03-01T19:17:58.048Z,9.50
2019-03-01T19:20:26.584Z,7.00
2019-03-01T19:22:54.338Z,11.30
2019-03-01T19:25:25.155Z,10.33
2019-03-01T19:27:52.601Z,11.30
2019-03-01T19:30:21.564Z,8.50
2019-03-01T19:32:50.277Z,10.03
2019-03-01T19:35:17.995Z,13.73
2019-03-01T19:37:45.859Z,7.47
2019-03-01T19:40:16.720Z,8.53
2019-03-01T19:43:06.942Z,12.43
2019-03-01T19:45:37.530Z,18.83
2019-03-01T19:48:05.241Z,13.23
2019-03-01T19:50:32.930Z,12.90
2019-03-01T19:53:00.644Z,8.37
2019-03-01T19:55:29.149Z,13.13
2019-03-01T19:57:56.904Z,11.48
2019-03-01T20:00:25.659Z,10.40
2019-03-01T20:02:53.308Z,16.10
2019-03-01T20:05:27.953Z,9.07
2019-03-01T20:07:56.029Z,7.80
2019-03-01T20:10:27.116Z,12.33
2019-03-01T20:12:57.146Z,8.30
2019-03-01T20:15:25.099Z,7.07
2019-03-01T20:17:53.270Z,8.10
2019-03-01T20:20:21.812Z,5.97
2019-03-01T20:22:59.552Z,7.87
2019-03-01T20:25:27.733Z,10.90
2019-03-01T20:27:57.952Z,15.67
2019-03-01T20:30:30.183Z,9.70
2019-03-01T20:32:56.218Z,8.53
2019-03-01T20:35:26.131Z,10.83
2019-03-01T20:37:54.383Z,7.80
2019-03-01T20:40:34.925Z,7.83
2019-03-01T20:43:06.711Z,13.27
2019-03-01T20:45:31.867Z,12.93
2019-03-01T20:48:00.119Z,9.63
2019-03-01T20:50:29.231Z,8.77
2019-03-01T20:52:56.984Z,5.63
2019-03-01T20:55:28.444Z,7.53
2019-03-01T20:57:59.826Z,9.03
2019-03-01T21:00:27.123Z,7.90
2019-03-01T21:02:54.805Z,9.53
2019-03-01T21:05:25.123Z,10.53
2019-03-01T21:07:54.124Z,11.03
2019-03-01T21:10:23.269Z,13.28
2019-03-01T21:12:51.001Z,7.40
2019-03-01T21:15:18.624Z,6.30
2019-03-01T21:17:46.380Z,5.83
2019-03-01T21:20:19.215Z,8.50
2019-03-01T21:22:45.193Z,8.10
2019-03-01T21:25:13.738Z,5.80
2019-03-01T21:27:41.350Z,12.03
2019-03-01T21:30:17.247Z,11.03
2019-03-01T21:32:46.925Z,6.40
2019-03-01T21:35:16.678Z,14.40
2019-03-01T21:37:44.097Z,8.93
2019-03-01T21:40:11.891Z,8.43
2019-03-01T21:42:39.321Z,5.13
2019-03-01T21:45:08.414Z,12.53
2019-03-01T21:47:35.887Z,8.20
2019-03-01T21:50:05.528Z,10.53
2019-03-01T21:52:33.147Z,12.47
2019-03-01T21:55:02.086Z,4.40
2019-03-01T21:57:31.165Z,12.83
2019-03-01T21:59:59.094Z,7.03
2019-03-01T22:02:26.923Z,6.50
2019-03-01T22:04:54.581Z,9.70
2019-03-01T22:07:24.638Z,6.30
2019-03-01T22:09:52.928Z,9.50
2019-03-01T22:12:20.862Z,8.07
2019-03-01T22:14:50.038Z,9.17
2019-03-01T22:17:17.493Z,12.13
2019-03-01T22:19:45.039Z,7.40
2019-03-01T22:22:12.567Z,9.40
2019-03-01T22:24:40.343Z,6.87
2019-03-01T22:27:08.319Z,10.43
2019-03-01T22:29:37.040Z,8.27
2019-03-01T22:32:07.337Z,9.20
2019-03-01T22:34:33.778Z,11.60
2019-03-01T22:37:02.466Z,6.63
2019-03-01T22:39:29.993Z,8.70
2019-03-01T22:41:57.789Z,8.27
2019-03-01T22:44:25.388Z,10.80
2019-03-01T22:46:53.021Z,10.33
2019-03-01T22:49:20.747Z,6.83
2019-03-01T22:51:49.555Z,13.27
2019-03-01T22:54:18.962Z,10.03
2019-03-01T22:56:48.484Z,9.17
2019-03-01T22:59:16.246Z,6.90
2019-03-01T23:01:46.354Z,6.67
2019-03-01T23:04:13.824Z,8.63
2019-03-01T23:06:41.294Z,8.13
2019-03-01T23:09:13.657Z,8.73
2019-03-01T23:11:41.444Z,7.00
2019-03-01T23:14:08.919Z,8.40
2019-03-01T23:16:36.378Z,12.50
2019-03-01T23:19:04.103Z,10.53
2019-03-01T23:21:32.684Z,8.53
2019-03-01T23:24:01.207Z,8.00
2019-03-01T23:26:29.103Z,6.83
2019-03-01T23:28:56.765Z,8.00
2019-03-01T23:31:24.593Z,6.83
2019-03-01T23:33:53.057Z,7.47
2019-03-01T23:36:20.497Z,6.00
2019-03-01T23:38:50.211Z,6.60
2019-03-01T23:41:31.090Z,6.10
2019-03-01T23:43:58.813Z,7.80
2019-03-01T23:46:28.600Z,9.40
2019-03-01T23:49:05.852Z,8.47
2019-03-01T23:51:26.743Z,10.95
2019-03-01T23:53:54.175Z,9.50
2019-03-01T23:56:21.731Z,9.00
2019-03-01T23:58:51.825Z,10.23
